Disclaimer

Please do not use the information listed here in-flight or in-navigation, as they are not provided to us by the airports but are provided by volunteers, so they might be outdated.

Search


Regions


Airport information page

No radio frequency information is available.

Airport informations:
Latitude: 47° 02' 20.45" N
Longitude: 005° 25' 38.10" E
Elevation: 645 feet - 197 meters
Operating hours: NO OPERATING HOURS LISTED
Operating agency: Civil government, landing fees and diplomatic clearance may be required
Timezone: UTC+1(+2DT) - Last Sunday in March to last Sunday in October
Fuel: Jet A1, without icing nhibitor.

100/130 MIL Spec, low lead, aviation gasoline (BLUE)

Runway information:
05/23 - 7318 x 148 feet< - >2231 x 45 meters

Recent METARs:
LFGJ 181900Z AUTO 05006KT CAVOK 03/M01 Q1016 NOSIG
LFGJ 181930Z AUTO 01003KT CAVOK 02/M01 Q1016
LFGJ 182000Z AUTO 05006KT CAVOK 02/M01 Q1016

Airport on the map: